Time;durP1;ratioP1;P1;durP2;ratioP2;P2;SDS_P1;SDS_P2;PMS_P1;PMS_P2;Temp;Humidity;BMP_temperature;BMP_pressure;BME280_temperature;BME280_humidity;BME280_pressure;Samples;Min_cycle;Max_cycle;Signal;HPM_P1;HPM_P2
2023/08/24 00:00:16;;;;;;;6.50;3.60;;;;;;;;;;5079426;28;20444;-65
2023/08/24 00:02:42;;;;;;;4.30;3.90;;;;;;;;;;5079415;28;20463;-65
2023/08/24 00:05:09;;;;;;;5.13;3.93;;;;;;;;;;5078548;28;20551;-64
2023/08/24 00:07:36;;;;;;;5.10;3.67;;;;;;;;;;5079473;28;20452;-64
2023/08/24 00:10:03;;;;;;;4.60;3.60;;;;;;;;;;5078863;28;20496;-65
2023/08/24 00:12:30;;;;;;;4.63;3.30;;;;;;;;;;5078266;28;20459;-65
2023/08/24 00:14:58;;;;;;;5.27;3.57;;;;;;;;;;5079502;28;20519;-64
2023/08/24 00:17:24;;;;;;;4.80;3.60;;;;;;;;;;5078910;28;20511;-64
2023/08/24 00:19:51;;;;;;;6.10;3.23;;;;;;;;;;5078429;28;20981;-64
2023/08/24 00:22:18;;;;;;;4.30;3.43;;;;;;;;;;5080141;28;20487;-64
2023/08/24 00:24:44;;;;;;;5.67;3.77;;;;;;;;;;5084227;28;20463;-64
2023/08/24 00:27:10;;;;;;;4.10;3.70;;;;;;;;;;5082948;28;20953;-64
2023/08/24 00:29:37;;;;;;;5.77;3.70;;;;;;;;;;5083080;28;20474;-64
2023/08/24 00:32:05;;;;;;;6.03;4.00;;;;;;;;;;5082960;28;20550;-65
2023/08/24 00:34:31;;;;;;;4.83;3.80;;;;;;;;;;5082165;28;20765;-65
2023/08/24 00:36:57;;;;;;;5.77;4.33;;;;;;;;;;5091739;28;20867;-65
2023/08/24 00:39:24;;;;;;;3.77;3.47;;;;;;;;;;5083891;28;20938;-65
2023/08/24 00:41:50;;;;;;;6.50;3.53;;;;;;;;;;5082954;28;20526;-64
2023/08/24 00:44:17;;;;;;;4.27;3.67;;;;;;;;;;5081872;28;20897;-64
2023/08/24 00:46:43;;;;;;;4.10;3.47;;;;;;;;;;5082887;28;20478;-65
2023/08/24 00:49:11;;;;;;;4.00;3.60;;;;;;;;;;5082406;28;20550;-65
2023/08/24 00:51:38;;;;;;;5.50;3.70;;;;;;;;;;5082925;28;20523;-65
2023/08/24 00:54:05;;;;;;;4.60;4.20;;;;;;;;;;5082027;28;20460;-65
2023/08/24 00:56:32;;;;;;;4.37;3.97;;;;;;;;;;5082885;28;20468;-65
2023/08/24 00:58:58;;;;;;;7.13;3.70;;;;;;;;;;5076323;28;20490;-65
2023/08/24 01:01:25;;;;;;;4.30;3.90;;;;;;;;;;5082240;28;20470;-65
2023/08/24 01:03:51;;;;;;;4.60;4.00;;;;;;;;;;5083086;28;20463;-65
2023/08/24 01:06:19;;;;;;;3.63;3.33;;;;;;;;;;5088551;28;20532;-65
2023/08/24 01:08:46;;;;;;;6.40;3.57;;;;;;;;;;5082071;28;20539;-65
2023/08/24 01:11:15;;;;;;;4.33;3.93;;;;;;;;;;5082325;28;20531;-65
2023/08/24 01:13:46;;;;;;;4.53;4.13;;;;;;;;;;5081683;28;20511;-65
2023/08/24 01:16:17;;;;;;;4.43;3.57;;;;;;;;;;5081173;28;20487;-65
2023/08/24 01:18:44;;;;;;;5.27;3.80;;;;;;;;;;5081677;28;20551;-65
2023/08/24 01:21:10;;;;;;;6.47;4.00;;;;;;;;;;5081855;28;20583;-65
2023/08/24 01:23:42;;;;;;;3.97;3.57;;;;;;;;;;5082110;28;20490;-65
2023/08/24 01:26:12;;;;;;;5.00;4.03;;;;;;;;;;5082246;28;20527;-65
2023/08/24 01:28:39;;;;;;;5.37;3.87;;;;;;;;;;5081316;28;20475;-65
2023/08/24 01:31:06;;;;;;;7.50;4.47;;;;;;;;;;5081925;28;20448;-64
2023/08/24 01:33:32;;;;;;;5.93;4.43;;;;;;;;;;5085263;28;20463;-65
2023/08/24 01:35:59;;;;;;;4.10;3.70;;;;;;;;;;5081266;28;20952;-64
2023/08/24 01:38:25;;;;;;;4.77;4.27;;;;;;;;;;5081036;28;20485;-65
2023/08/24 01:40:55;;;;;;;5.50;4.20;;;;;;;;;;5081523;28;20455;-64
2023/08/24 01:43:26;;;;;;;5.77;4.77;;;;;;;;;;5085332;28;20456;-64
2023/08/24 01:45:52;;;;;;;6.80;4.20;;;;;;;;;;5081644;28;20849;-65
2023/08/24 01:48:19;;;;;;;4.30;3.80;;;;;;;;;;5081508;28;20491;-64
2023/08/24 01:50:47;;;;;;;5.37;3.30;;;;;;;;;;5090174;28;20538;-64
2023/08/24 01:53:13;;;;;;;5.00;3.70;;;;;;;;;;5083126;28;20499;-64
2023/08/24 01:55:41;;;;;;;4.10;3.70;;;;;;;;;;5081646;28;20497;-64
2023/08/24 01:58:09;;;;;;;7.33;3.80;;;;;;;;;;5080994;28;21061;-65
2023/08/24 02:00:37;;;;;;;3.70;3.33;;;;;;;;;;5081330;28;20494;-63
2023/08/24 02:03:03;;;;;;;5.73;4.03;;;;;;;;;;5081497;28;20655;-63
2023/08/24 02:05:30;;;;;;;4.53;4.13;;;;;;;;;;5081006;28;20542;-64
2023/08/24 02:07:57;;;;;;;4.23;3.83;;;;;;;;;;5080997;28;20459;-64
2023/08/24 02:10:23;;;;;;;3.73;3.37;;;;;;;;;;5080962;28;20463;-63
2023/08/24 02:12:50;;;;;;;4.23;3.63;;;;;;;;;;5079968;28;20849;-64
2023/08/24 02:15:16;;;;;;;4.50;3.87;;;;;;;;;;5080996;28;20467;-63
2023/08/24 02:17:44;;;;;;;4.67;3.97;;;;;;;;;;5080031;28;20547;-63
2023/08/24 02:20:12;;;;;;;4.87;3.70;;;;;;;;;;5083637;28;20694;-63
2023/08/24 02:22:38;;;;;;;4.33;3.83;;;;;;;;;;5082649;28;20448;-63
2023/08/24 02:25:06;;;;;;;4.80;4.00;;;;;;;;;;5081155;28;20456;-63
2023/08/24 02:27:32;;;;;;;5.27;4.10;;;;;;;;;;5080146;28;20497;-63
2023/08/24 02:29:58;;;;;;;4.53;4.13;;;;;;;;;;5080453;28;20515;-63
2023/08/24 02:32:25;;;;;;;6.83;4.63;;;;;;;;;;5085019;28;20451;-63
2023/08/24 02:34:52;;;;;;;5.43;4.23;;;;;;;;;;5081535;28;20887;-63
2023/08/24 02:37:19;;;;;;;5.10;4.30;;;;;;;;;;5080771;28;20588;-64
2023/08/24 02:39:45;;;;;;;5.50;4.97;;;;;;;;;;5080105;28;20492;-64
2023/08/24 02:42:11;;;;;;;7.70;4.57;;;;;;;;;;5079944;28;20450;-64
2023/08/24 02:44:38;;;;;;;5.63;4.80;;;;;;;;;;5079180;28;20463;-64
2023/08/24 02:47:05;;;;;;;5.20;4.70;;;;;;;;;;5079919;28;20544;-64
2023/08/24 02:49:31;;;;;;;5.67;5.07;;;;;;;;;;5079714;28;20559;-63
2023/08/24 02:52:00;;;;;;;4.73;4.30;;;;;;;;;;5080360;28;20539;-64
2023/08/24 02:54:26;;;;;;;4.90;4.47;;;;;;;;;;5080490;28;20472;-63
2023/08/24 02:56:52;;;;;;;7.60;4.60;;;;;;;;;;5079694;28;20474;-63
2023/08/24 02:59:19;;;;;;;6.37;4.80;;;;;;;;;;5079724;28;20494;-64
2023/08/24 03:01:45;;;;;;;4.90;4.37;;;;;;;;;;5079684;28;20523;-63
2023/08/24 03:04:11;;;;;;;5.47;4.80;;;;;;;;;;5084941;28;20447;-63
2023/08/24 03:06:38;;;;;;;5.30;4.67;;;;;;;;;;5083105;28;20480;-63
2023/08/24 03:09:05;;;;;;;5.80;4.17;;;;;;;;;;5085239;28;20455;-63
2023/08/24 03:11:32;;;;;;;4.83;4.43;;;;;;;;;;5088746;28;20555;-63
2023/08/24 03:13:58;;;;;;;5.10;4.53;;;;;;;;;;5078662;28;20555;-63
2023/08/24 03:16:25;;;;;;;5.87;3.80;;;;;;;;;;5079700;28;20535;-63
2023/08/24 03:18:51;;;;;;;4.80;4.00;;;;;;;;;;5079698;28;20992;-63
2023/08/24 03:21:17;;;;;;;5.03;4.50;;;;;;;;;;5079140;28;20448;-63
2023/08/24 03:23:44;;;;;;;4.40;4.00;;;;;;;;;;5079885;28;20558;-63
2023/08/24 03:26:11;;;;;;;4.40;3.57;;;;;;;;;;5079916;28;20524;-63
2023/08/24 03:28:38;;;;;;;7.27;3.60;;;;;;;;;;5079141;28;20487;-63
2023/08/24 03:31:04;;;;;;;4.63;3.80;;;;;;;;;;5079890;28;20507;-64
2023/08/24 03:33:33;;;;;;;5.27;3.90;;;;;;;;;;5079763;28;20528;-63
2023/08/24 03:35:59;;;;;;;4.40;4.00;;;;;;;;;;5072677;28;20852;-63
2023/08/24 03:38:26;;;;;;;5.23;3.60;;;;;;;;;;5079145;28;20539;-63
2023/08/24 03:40:53;;;;;;;10.70;3.53;;;;;;;;;;5068276;28;20452;-63
2023/08/24 03:43:20;;;;;;;3.73;3.40;;;;;;;;;;5084977;28;20502;-63
2023/08/24 03:45:47;;;;;;;4.93;3.90;;;;;;;;;;5079984;28;20522;-62
2023/08/24 03:48:13;;;;;;;4.73;3.90;;;;;;;;;;5079065;28;21132;-62
2023/08/24 03:50:39;;;;;;;5.23;3.30;;;;;;;;;;5081669;28;20467;-64
2023/08/24 03:53:07;;;;;;;6.73;3.97;;;;;;;;;;5080034;28;21041;-63
2023/08/24 03:55:34;;;;;;;3.93;3.30;;;;;;;;;;5078211;28;20456;-64
2023/08/24 03:58:00;;;;;;;3.77;3.47;;;;;;;;;;5079507;28;20840;-64
2023/08/24 04:00:28;;;;;;;6.10;4.27;;;;;;;;;;5078997;28;20479;-63
2023/08/24 04:02:54;;;;;;;6.03;4.37;;;;;;;;;;5078880;28;20932;-64
2023/08/24 04:05:21;;;;;;;5.37;4.10;;;;;;;;;;5079086;28;20519;-63
2023/08/24 04:07:47;;;;;;;5.53;3.70;;;;;;;;;;5079414;28;20477;-63
2023/08/24 04:10:13;;;;;;;9.90;4.23;;;;;;;;;;5083123;28;20513;-64
2023/08/24 04:12:40;;;;;;;10.30;5.10;;;;;;;;;;5077556;28;20532;-64
2023/08/24 04:15:06;;;;;;;6.53;5.90;;;;;;;;;;5098103;28;20531;-64
2023/08/24 04:17:34;;;;;;;8.13;4.57;;;;;;;;;;5096800;28;21223;-64
2023/08/24 04:20:00;;;;;;;7.57;5.47;;;;;;;;;;5097589;28;20487;-64
2023/08/24 04:22:27;;;;;;;4.83;4.33;;;;;;;;;;5102425;28;20450;-63
2023/08/24 04:24:53;;;;;;;5.00;4.50;;;;;;;;;;5103650;28;20561;-64
2023/08/24 04:27:20;;;;;;;5.60;4.90;;;;;;;;;;5102704;28;20468;-64
2023/08/24 04:29:46;;;;;;;4.90;4.50;;;;;;;;;;5099097;28;20608;-63
2023/08/24 04:32:12;;;;;;;9.00;5.33;;;;;;;;;;5097491;28;20507;-64
2023/08/24 04:34:40;;;;;;;5.93;4.27;;;;;;;;;;5102172;28;20451;-64
2023/08/24 04:37:07;;;;;;;7.10;4.50;;;;;;;;;;5100480;28;20447;-65
2023/08/24 04:39:33;;;;;;;5.90;4.87;;;;;;;;;;5090114;28;20577;-64
2023/08/24 04:42:00;;;;;;;6.60;5.67;;;;;;;;;;5097045;28;20447;-64
2023/08/24 04:44:26;;;;;;;5.90;5.30;;;;;;;;;;5096868;28;20554;-63
2023/08/24 04:46:52;;;;;;;5.83;4.67;;;;;;;;;;5100149;28;20522;-64
2023/08/24 04:49:19;;;;;;;8.87;5.50;;;;;;;;;;5091918;28;20466;-64
2023/08/24 04:51:46;;;;;;;7.60;5.47;;;;;;;;;;5076676;28;20531;-64
2023/08/24 04:54:13;;;;;;;7.33;5.93;;;;;;;;;;5076041;28;20460;-64
2023/08/24 04:56:39;;;;;;;6.43;5.70;;;;;;;;;;5077380;28;20524;-64
2023/08/24 04:59:07;;;;;;;6.20;5.60;;;;;;;;;;5078262;28;20484;-64
2023/08/24 05:01:34;;;;;;;7.07;6.27;;;;;;;;;;5083453;28;20443;-64
2023/08/24 05:04:00;;;;;;;6.77;6.17;;;;;;;;;;5076568;28;20480;-64
2023/08/24 05:06:26;;;;;;;12.57;6.40;;;;;;;;;;5076680;28;20516;-64
2023/08/24 05:08:55;;;;;;;9.70;7.70;;;;;;;;;;5073134;28;20913;-65
2023/08/24 05:11:24;;;;;;;10.60;6.70;;;;;;;;;;5080614;28;21136;-64
2023/08/24 05:13:50;;;;;;;9.07;6.73;;;;;;;;;;5079442;28;20491;-64
2023/08/24 05:16:17;;;;;;;9.20;6.40;;;;;;;;;;5080517;28;20686;-64
2023/08/24 05:18:43;;;;;;;8.73;7.20;;;;;;;;;;5079686;28;21043;-64
2023/08/24 05:21:09;;;;;;;8.73;7.87;;;;;;;;;;5080385;28;20502;-64
2023/08/24 05:23:36;;;;;;;8.83;7.93;;;;;;;;;;5079769;28;20551;-64
2023/08/24 05:26:04;;;;;;;10.00;8.07;;;;;;;;;;5079803;28;20515;-63
2023/08/24 05:28:31;;;;;;;9.13;7.10;;;;;;;;;;5069179;28;20564;-64
2023/08/24 05:30:58;;;;;;;14.30;8.50;;;;;;;;;;5059635;28;20965;-64
2023/08/24 05:33:25;;;;;;;8.87;7.97;;;;;;;;;;5060341;28;20528;-64
2023/08/24 05:35:52;;;;;;;16.73;8.67;;;;;;;;;;5057203;28;20524;-64
2023/08/24 05:38:19;;;;;;;9.40;8.50;;;;;;;;;;5056988;28;20512;-64
2023/08/24 05:40:47;;;;;;;9.43;8.40;;;;;;;;;;5062890;28;20552;-64
2023/08/24 05:43:15;;;;;;;12.47;11.27;;;;;;;;;;5060379;28;20459;-64
2023/08/24 05:45:44;;;;;;;14.53;13.10;;;;;;;;;;5061138;28;21042;-64
2023/08/24 05:48:10;;;;;;;14.00;12.67;;;;;;;;;;5061175;28;20445;-63
2023/08/24 05:50:37;;;;;;;14.63;12.30;;;;;;;;;;5061941;28;20484;-65
2023/08/24 05:53:04;;;;;;;15.03;13.30;;;;;;;;;;5059194;28;20516;-64
2023/08/24 05:55:30;;;;;;;18.03;16.17;;;;;;;;;;5060710;28;20484;-64
2023/08/24 05:57:56;;;;;;;14.80;13.40;;;;;;;;;;5060318;28;20461;-64
2023/08/24 06:00:24;;;;;;;15.83;14.30;;;;;;;;;;5060693;28;20476;-65
2023/08/24 06:02:51;;;;;;;15.67;13.97;;;;;;;;;;5059626;28;20504;-65
2023/08/24 06:05:18;;;;;;;16.17;14.67;;;;;;;;;;5060133;28;20486;-65
2023/08/24 06:07:44;;;;;;;15.97;14.13;;;;;;;;;;5060129;28;20460;-65
2023/08/24 06:10:12;;;;;;;14.53;13.00;;;;;;;;;;5061042;28;20486;-65
2023/08/24 06:12:38;;;;;;;14.40;13.00;;;;;;;;;;5059753;28;20448;-65
2023/08/24 06:15:07;;;;;;;13.33;12.13;;;;;;;;;;5055878;28;20473;-65
2023/08/24 06:17:35;;;;;;;15.93;13.33;;;;;;;;;;5044818;28;20840;-65
2023/08/24 06:20:03;;;;;;;15.70;14.20;;;;;;;;;;5057760;28;20503;-65
2023/08/24 06:22:29;;;;;;;15.23;13.83;;;;;;;;;;5059434;28;20449;-66
2023/08/24 06:24:59;;;;;;;17.20;13.30;;;;;;;;;;5061083;28;20548;-65
2023/08/24 06:27:25;;;;;;;15.23;13.73;;;;;;;;;;5059980;28;20547;-66
2023/08/24 06:29:52;;;;;;;15.63;14.23;;;;;;;;;;5059120;28;20457;-65
2023/08/24 06:32:18;;;;;;;15.60;14.20;;;;;;;;;;5058502;28;20457;-65
2023/08/24 06:34:46;;;;;;;16.00;14.17;;;;;;;;;;5058087;28;20750;-65
2023/08/24 06:37:12;;;;;;;15.13;13.83;;;;;;;;;;5058290;28;20965;-65
2023/08/24 06:39:39;;;;;;;15.53;14.07;;;;;;;;;;5056365;28;20554;-65
2023/08/24 06:42:05;;;;;;;15.80;14.40;;;;;;;;;;5056862;28;20531;-65
2023/08/24 06:44:31;;;;;;;19.17;14.27;;;;;;;;;;5057931;28;20819;-66
2023/08/24 06:46:58;;;;;;;15.07;13.57;;;;;;;;;;5059279;28;20508;-66
2023/08/24 06:49:25;;;;;;;15.30;13.90;;;;;;;;;;5058262;28;20492;-65
2023/08/24 06:51:52;;;;;;;14.97;13.53;;;;;;;;;;5058408;28;20500;-65
2023/08/24 06:54:19;;;;;;;13.00;11.47;;;;;;;;;;5059269;28;20490;-65
2023/08/24 06:56:45;;;;;;;16.53;15.10;;;;;;;;;;5058391;28;20449;-65
2023/08/24 06:59:13;;;;;;;19.37;15.70;;;;;;;;;;5057884;28;20457;-64
2023/08/24 07:01:40;;;;;;;15.70;14.30;;;;;;;;;;5057834;28;20480;-65
2023/08/24 07:04:07;;;;;;;16.03;14.63;;;;;;;;;;5059388;28;20527;-66
2023/08/24 07:06:34;;;;;;;16.80;15.40;;;;;;;;;;5058277;28;20524;-64
2023/08/24 07:09:06;;;;;;;17.10;15.37;;;;;;;;;;5059311;28;20544;-65
2023/08/24 07:11:32;;;;;;;18.97;17.40;;;;;;;;;;5058640;28;20529;-65
2023/08/24 07:13:59;;;;;;;22.17;20.07;;;;;;;;;;5057631;28;20449;-65
2023/08/24 07:16:25;;;;;;;24.50;22.30;;;;;;;;;;5059110;28;20535;-65
2023/08/24 07:18:51;;;;;;;23.20;21.30;;;;;;;;;;5058717;28;20522;-65
2023/08/24 07:21:18;;;;;;;24.33;22.10;;;;;;;;;;5058436;28;20484;-65
2023/08/24 07:23:44;;;;;;;22.77;20.77;;;;;;;;;;5053903;28;20955;-65
2023/08/24 07:26:13;;;;;;;23.30;21.07;;;;;;;;;;5058937;28;20521;-65
2023/08/24 07:28:39;;;;;;;21.90;19.93;;;;;;;;;;5058183;28;20487;-65
2023/08/24 07:31:10;;;;;;;20.23;18.33;;;;;;;;;;5059011;28;20512;-65
2023/08/24 07:33:37;;;;;;;20.43;18.77;;;;;;;;;;5060551;28;20453;-65
2023/08/24 07:36:04;;;;;;;19.33;17.70;;;;;;;;;;5059618;28;20470;-66
2023/08/24 07:38:30;;;;;;;18.90;17.50;;;;;;;;;;5059316;28;20453;-65
2023/08/24 07:40:57;;;;;;;19.73;18.23;;;;;;;;;;5058952;28;20488;-65
2023/08/24 07:43:25;;;;;;;19.53;17.83;;;;;;;;;;5058335;28;20504;-65
2023/08/24 07:45:51;;;;;;;18.50;16.90;;;;;;;;;;5058338;28;20449;-65
2023/08/24 07:48:18;;;;;;;18.20;16.70;;;;;;;;;;5059269;28;20547;-65
2023/08/24 07:50:44;;;;;;;17.37;16.17;;;;;;;;;;5059320;28;20472;-66
2023/08/24 07:53:11;;;;;;;18.90;17.50;;;;;;;;;;5058390;28;21026;-66
2023/08/24 07:55:37;;;;;;;18.17;16.77;;;;;;;;;;5059063;28;20513;-66
2023/08/24 07:58:04;;;;;;;16.30;14.70;;;;;;;;;;5058578;28;20484;-66
2023/08/24 08:00:32;;;;;;;17.23;15.93;;;;;;;;;;5058237;28;20971;-65
2023/08/24 08:02:58;;;;;;;17.00;15.67;;;;;;;;;;5058639;28;20441;-65
2023/08/24 08:05:25;;;;;;;17.50;16.00;;;;;;;;;;5066617;28;20464;-65
2023/08/24 08:07:51;;;;;;;17.70;16.40;;;;;;;;;;5056485;28;20484;-65
2023/08/24 08:10:20;;;;;;;14.13;12.97;;;;;;;;;;5058910;28;20460;-65
2023/08/24 08:12:46;;;;;;;12.93;11.83;;;;;;;;;;5066544;28;20449;-65
2023/08/24 08:15:13;;;;;;;14.30;13.07;;;;;;;;;;5058846;28;20488;-66
2023/08/24 08:17:42;;;;;;;13.20;12.10;;;;;;;;;;5058278;28;20480;-66
2023/08/24 08:20:08;;;;;;;14.07;12.87;;;;;;;;;;5060932;28;20488;-66
2023/08/24 08:22:38;;;;;;;14.33;11.90;;;;;;;;;;5058054;28;20504;-66
2023/08/24 08:25:05;;;;;;;13.50;12.30;;;;;;;;;;5057497;28;20489;-67
2023/08/24 08:27:31;;;;;;;14.63;13.43;;;;;;;;;;5060618;28;20525;-66
2023/08/24 08:29:58;;;;;;;13.37;12.23;;;;;;;;;;5077761;28;20456;-66
2023/08/24 08:32:26;;;;;;;13.07;11.87;;;;;;;;;;5077337;28;20516;-67
2023/08/24 08:34:54;;;;;;;12.20;11.20;;;;;;;;;;5076594;28;20464;-66
2023/08/24 08:37:21;;;;;;;14.20;12.87;;;;;;;;;;5077895;28;20444;-67
2023/08/24 08:39:47;;;;;;;12.30;11.40;;;;;;;;;;5082367;28;20456;-66
2023/08/24 08:42:14;;;;;;;11.03;10.23;;;;;;;;;;5084783;28;20478;-67
2023/08/24 08:44:41;;;;;;;12.33;11.40;;;;;;;;;;5080657;28;20889;-67
2023/08/24 08:47:08;;;;;;;13.10;12.00;;;;;;;;;;5082131;28;20527;-66
2023/08/24 08:49:35;;;;;;;13.70;12.40;;;;;;;;;;5081132;28;20467;-67
2023/08/24 08:52:03;;;;;;;13.50;12.33;;;;;;;;;;5081541;28;20511;-68
2023/08/24 08:54:30;;;;;;;12.33;11.20;;;;;;;;;;5081712;28;21293;-66
2023/08/24 08:56:56;;;;;;;13.60;12.40;;;;;;;;;;5081314;28;20511;-67
2023/08/24 08:59:23;;;;;;;14.40;13.10;;;;;;;;;;5081427;28;20546;-66
2023/08/24 09:01:50;;;;;;;13.80;12.60;;;;;;;;;;5081554;28;20471;-66
2023/08/24 09:04:17;;;;;;;14.70;13.50;;;;;;;;;;5080064;28;20521;-66
2023/08/24 09:06:44;;;;;;;13.07;11.97;;;;;;;;;;5095534;28;20482;-66
2023/08/24 09:09:12;;;;;;;15.40;14.20;;;;;;;;;;5093812;28;20629;-67
2023/08/24 09:11:39;;;;;;;14.03;12.83;;;;;;;;;;5102343;28;20554;-67
2023/08/24 09:14:06;;;;;;;12.80;11.67;;;;;;;;;;5096464;28;20469;-66
2023/08/24 09:16:33;;;;;;;13.30;12.30;;;;;;;;;;5095168;28;20511;-66
2023/08/24 09:18:59;;;;;;;11.33;10.53;;;;;;;;;;5101428;28;20461;-66
2023/08/24 09:21:26;;;;;;;11.27;10.47;;;;;;;;;;5094943;28;20535;-66
2023/08/24 09:23:56;;;;;;;17.10;11.77;;;;;;;;;;5092913;28;20483;-66
2023/08/24 09:26:30;;;;;;;12.30;11.30;;;;;;;;;;5097613;28;20510;-67
2023/08/24 09:28:56;;;;;;;12.80;11.60;;;;;;;;;;5104548;28;20477;-66
2023/08/24 09:31:23;;;;;;;13.10;11.80;;;;;;;;;;5091753;28;20474;-66
2023/08/24 09:33:49;;;;;;;12.60;11.70;;;;;;;;;;5098537;28;20301;-66
2023/08/24 09:36:16;;;;;;;14.10;12.80;;;;;;;;;;5105319;28;20894;-66
2023/08/24 09:38:47;;;;;;;13.23;11.87;;;;;;;;;;5097341;28;20463;-66
2023/08/24 09:41:14;;;;;;;12.37;11.07;;;;;;;;;;5097959;28;20623;-66
2023/08/24 09:43:41;;;;;;;12.63;11.63;;;;;;;;;;5099199;28;20530;-67
2023/08/24 09:46:08;;;;;;;12.77;11.40;;;;;;;;;;5093359;28;20543;-66
2023/08/24 09:48:34;;;;;;;13.30;12.00;;;;;;;;;;5100355;28;20526;-65
2023/08/24 09:51:04;;;;;;;12.53;11.40;;;;;;;;;;5100268;28;20580;-66
2023/08/24 09:53:33;;;;;;;13.63;10.40;;;;;;;;;;5097480;28;20506;-66
2023/08/24 09:56:00;;;;;;;13.23;11.47;;;;;;;;;;5107139;28;20477;-66
2023/08/24 09:58:27;;;;;;;10.70;9.67;;;;;;;;;;5099502;28;20462;-66
2023/08/24 10:00:55;;;;;;;10.73;9.80;;;;;;;;;;5098614;28;20506;-66
2023/08/24 10:03:22;;;;;;;11.43;10.53;;;;;;;;;;5097015;28;20456;-66
2023/08/24 10:05:50;;;;;;;10.60;9.70;;;;;;;;;;5089518;28;21222;-66
2023/08/24 10:08:21;;;;;;;10.30;9.40;;;;;;;;;;5098426;28;20453;-66
2023/08/24 10:10:49;;;;;;;13.00;11.80;;;;;;;;;;5100519;28;20974;-66
2023/08/24 10:13:19;;;;;;;10.70;9.80;;;;;;;;;;5098992;28;20529;-66
2023/08/24 10:15:47;;;;;;;10.03;9.30;;;;;;;;;;5095663;28;20463;-66
2023/08/24 10:18:15;;;;;;;10.80;9.70;;;;;;;;;;5099902;28;20526;-66
2023/08/24 10:20:43;;;;;;;10.43;9.43;;;;;;;;;;5092567;28;20482;-66
2023/08/24 10:23:10;;;;;;;10.53;9.60;;;;;;;;;;5100431;28;20455;-67
2023/08/24 10:25:37;;;;;;;10.83;9.73;;;;;;;;;;5094540;28;20522;-66
2023/08/24 10:28:04;;;;;;;8.83;8.13;;;;;;;;;;5089729;28;20557;-66
2023/08/24 10:30:30;;;;;;;9.30;8.60;;;;;;;;;;5097030;28;20451;-66
2023/08/24 10:32:57;;;;;;;9.80;8.20;;;;;;;;;;5090210;28;20527;-66
2023/08/24 10:35:26;;;;;;;14.13;9.83;;;;;;;;;;5096784;28;20550;-66
2023/08/24 10:37:53;;;;;;;8.13;7.40;;;;;;;;;;5100055;28;20515;-67
2023/08/24 10:40:31;;;;;;;8.63;7.67;;;;;;;;;;5098747;28;20526;-66
2023/08/24 10:42:58;;;;;;;7.80;7.23;;;;;;;;;;5099974;28;20527;-66
2023/08/24 10:45:25;;;;;;;7.40;6.60;;;;;;;;;;5101992;28;20450;-68
2023/08/24 10:47:53;;;;;;;8.53;7.73;;;;;;;;;;5099798;28;20466;-67
2023/08/24 10:50:20;;;;;;;8.50;7.80;;;;;;;;;;5099721;28;20474;-66
2023/08/24 10:52:48;;;;;;;8.00;7.20;;;;;;;;;;5096276;28;20448;-66
2023/08/24 10:55:24;;;;;;;9.63;8.77;;;;;;;;;;5092183;28;20455;-67
2023/08/24 10:57:57;;;;;;;9.20;8.37;;;;;;;;;;5095766;28;20565;-66
2023/08/24 11:00:26;;;;;;;9.10;8.20;;;;;;;;;;5089336;28;20447;-66
2023/08/24 11:02:52;;;;;;;8.30;7.33;;;;;;;;;;5090919;28;20493;-66
2023/08/24 11:05:21;;;;;;;8.43;7.63;;;;;;;;;;5094240;28;20534;-67
2023/08/24 11:07:55;;;;;;;7.50;6.80;;;;;;;;;;5087982;28;20455;-67
2023/08/24 11:10:22;;;;;;;7.30;6.53;;;;;;;;;;5094419;28;20565;-66
2023/08/24 11:13:06;;;;;;;9.63;7.27;;;;;;;;;;5088673;28;20452;-66
2023/08/24 11:15:33;;;;;;;9.37;7.07;;;;;;;;;;5098652;28;20455;-65
2023/08/24 11:18:18;;;;;;;9.10;6.50;;;;;;;;;;5101063;28;21066;-66
2023/08/24 11:20:44;;;;;;;9.77;6.17;;;;;;;;;;5091335;28;20486;-66
2023/08/24 11:23:13;;;;;;;7.83;6.97;;;;;;;;;;5097683;28;20454;-66
2023/08/24 11:25:39;;;;;;;7.27;6.50;;;;;;;;;;5100694;28;20960;-67
2023/08/24 11:28:06;;;;;;;6.90;6.27;;;;;;;;;;5099038;28;20539;-66
2023/08/24 11:30:33;;;;;;;9.90;5.73;;;;;;;;;;5100912;28;20454;-67
2023/08/24 11:33:00;;;;;;;8.87;6.33;;;;;;;;;;5093608;28;20625;-66
2023/08/24 11:35:26;;;;;;;6.87;5.83;;;;;;;;;;5098428;28;20791;-66
2023/08/24 11:37:53;;;;;;;6.50;5.90;;;;;;;;;;5086035;28;20472;-66
2023/08/24 11:40:26;;;;;;;6.13;5.50;;;;;;;;;;5095244;28;20550;-65
2023/08/24 11:42:54;;;;;;;6.07;5.47;;;;;;;;;;5095342;28;20471;-66
2023/08/24 11:45:20;;;;;;;7.10;6.40;;;;;;;;;;5095391;28;20455;-66
2023/08/24 11:47:47;;;;;;;6.90;6.20;;;;;;;;;;5086218;28;20440;-65
2023/08/24 11:50:13;;;;;;;6.37;5.13;;;;;;;;;;5094201;28;20554;-67
2023/08/24 11:52:40;;;;;;;5.70;5.20;;;;;;;;;;5085659;28;20471;-66
2023/08/24 11:55:08;;;;;;;5.67;5.23;;;;;;;;;;5097253;28;20621;-66
2023/08/24 11:57:36;;;;;;;13.70;5.90;;;;;;;;;;5098600;28;20519;-65
2023/08/24 12:00:04;;;;;;;5.53;5.13;;;;;;;;;;5096786;28;20558;-66
2023/08/24 12:02:30;;;;;;;5.80;5.30;;;;;;;;;;5091842;28;20475;-66
2023/08/24 12:04:57;;;;;;;8.13;5.97;;;;;;;;;;5100221;28;20497;-65
2023/08/24 12:07:23;;;;;;;5.83;5.20;;;;;;;;;;5098554;28;20498;-65
2023/08/24 12:09:52;;;;;;;5.97;5.40;;;;;;;;;;5097734;28;20550;-65
2023/08/24 12:12:20;;;;;;;5.40;4.93;;;;;;;;;;5086048;28;20871;-66
2023/08/24 12:14:48;;;;;;;6.33;5.70;;;;;;;;;;5095664;28;20459;-66
2023/08/24 12:17:15;;;;;;;9.17;6.73;;;;;;;;;;5105816;28;20529;-65
2023/08/24 12:19:43;;;;;;;6.00;5.50;;;;;;;;;;5097332;28;20467;-66
2023/08/24 12:22:13;;;;;;;5.30;4.80;;;;;;;;;;5097483;28;20485;-66
2023/08/24 12:24:43;;;;;;;7.23;5.10;;;;;;;;;;5091510;28;20455;-66
2023/08/24 12:27:18;;;;;;;6.27;5.70;;;;;;;;;;5102319;28;20439;-66
2023/08/24 12:29:45;;;;;;;6.47;5.43;;;;;;;;;;5106759;28;20520;-66
2023/08/24 12:32:15;;;;;;;5.70;5.20;;;;;;;;;;5096211;28;20452;-66
2023/08/24 12:34:41;;;;;;;6.53;6.03;;;;;;;;;;5096423;28;20454;-66
2023/08/24 12:37:08;;;;;;;7.97;5.93;;;;;;;;;;5102134;28;20487;-65
2023/08/24 12:39:35;;;;;;;8.40;5.87;;;;;;;;;;5097758;28;20486;-65
2023/08/24 12:42:02;;;;;;;7.37;5.33;;;;;;;;;;5104152;28;20525;-65
2023/08/24 12:44:28;;;;;;;9.00;5.57;;;;;;;;;;5096362;28;20518;-66
2023/08/24 12:46:55;;;;;;;6.10;5.10;;;;;;;;;;5101812;28;20451;-66
2023/08/24 12:49:23;;;;;;;6.00;5.47;;;;;;;;;;5102057;28;20565;-66
2023/08/24 12:51:49;;;;;;;6.63;5.60;;;;;;;;;;5085531;28;20447;-66
2023/08/24 12:54:15;;;;;;;5.10;4.70;;;;;;;;;;5109488;28;20446;-66
2023/08/24 12:56:42;;;;;;;5.97;5.37;;;;;;;;;;5095308;28;20518;-65
2023/08/24 12:59:08;;;;;;;6.07;5.57;;;;;;;;;;5101854;28;20554;-65
2023/08/24 13:01:35;;;;;;;6.80;5.27;;;;;;;;;;5100499;28;20607;-67
2023/08/24 13:04:01;;;;;;;6.23;5.63;;;;;;;;;;5099908;28;20453;-65
2023/08/24 13:06:29;;;;;;;6.00;5.40;;;;;;;;;;5095895;28;20469;-65
2023/08/24 13:08:55;;;;;;;6.30;5.10;;;;;;;;;;5099302;28;20502;-65
2023/08/24 13:11:22;;;;;;;7.00;5.37;;;;;;;;;;5095042;28;20570;-65
2023/08/24 13:13:48;;;;;;;6.37;5.67;;;;;;;;;;5096667;28;20455;-65
2023/08/24 13:16:15;;;;;;;5.97;5.37;;;;;;;;;;5101071;28;20951;-66
2023/08/24 13:18:42;;;;;;;8.10;5.47;;;;;;;;;;5089674;28;20590;-66
2023/08/24 13:21:09;;;;;;;7.50;5.23;;;;;;;;;;5087983;28;20537;-65
2023/08/24 13:23:36;;;;;;;5.70;5.20;;;;;;;;;;5101192;28;20854;-66
2023/08/24 13:26:03;;;;;;;5.50;5.00;;;;;;;;;;5088615;28;20653;-65
2023/08/24 13:28:29;;;;;;;6.63;5.30;;;;;;;;;;5102661;28;20522;-67
2023/08/24 13:30:55;;;;;;;7.20;4.67;;;;;;;;;;5100594;28;20509;-66
2023/08/24 13:33:22;;;;;;;5.80;5.30;;;;;;;;;;5096451;28;20507;-65
2023/08/24 13:35:48;;;;;;;5.77;4.90;;;;;;;;;;5100835;28;20486;-66
2023/08/24 13:38:15;;;;;;;6.00;5.50;;;;;;;;;;5096170;28;20584;-66
2023/08/24 13:40:43;;;;;;;7.73;5.37;;;;;;;;;;5102246;28;20477;-66
2023/08/24 13:43:09;;;;;;;7.70;5.40;;;;;;;;;;5101218;28;20539;-66
2023/08/24 13:45:36;;;;;;;7.07;5.03;;;;;;;;;;5101005;28;20452;-66
2023/08/24 13:48:02;;;;;;;8.70;4.97;;;;;;;;;;5101447;28;20514;-66
2023/08/24 13:50:29;;;;;;;7.77;5.30;;;;;;;;;;5099969;28;20465;-66
2023/08/24 13:52:55;;;;;;;8.27;4.93;;;;;;;;;;5093677;28;20867;-66
2023/08/24 13:55:22;;;;;;;8.67;5.63;;;;;;;;;;5100470;28;20493;-66
2023/08/24 13:57:49;;;;;;;6.17;4.70;;;;;;;;;;5105140;28;20561;-66
2023/08/24 14:00:17;;;;;;;7.00;5.00;;;;;;;;;;5094176;28;20481;-66
2023/08/24 14:02:44;;;;;;;9.60;5.47;;;;;;;;;;5105012;28;20580;-66
2023/08/24 14:05:12;;;;;;;8.30;5.70;;;;;;;;;;5099530;28;20459;-66
2023/08/24 14:07:39;;;;;;;6.70;5.03;;;;;;;;;;5099884;28;20443;-66
2023/08/24 14:10:06;;;;;;;5.30;4.63;;;;;;;;;;5103697;28;20502;-66
2023/08/24 14:12:32;;;;;;;6.60;5.30;;;;;;;;;;5097118;28;20486;-68
2023/08/24 14:15:00;;;;;;;6.23;5.00;;;;;;;;;;5092708;28;20482;-65
2023/08/24 14:17:27;;;;;;;5.83;5.17;;;;;;;;;;5105415;28;20553;-65
2023/08/24 14:19:53;;;;;;;6.40;4.57;;;;;;;;;;5098530;28;20455;-65
2023/08/24 14:22:19;;;;;;;5.37;4.23;;;;;;;;;;5091999;28;20525;-65
2023/08/24 14:24:46;;;;;;;5.70;4.70;;;;;;;;;;5098347;28;20459;-65
2023/08/24 14:27:12;;;;;;;9.40;5.10;;;;;;;;;;5098549;28;20549;-65
2023/08/24 14:29:38;;;;;;;5.50;5.00;;;;;;;;;;5094538;28;21115;-65
2023/08/24 14:32:06;;;;;;;5.80;4.40;;;;;;;;;;5098328;28;20447;-65